createdAt,value
2019-02-25T00:01:32.867Z,5.90
2019-02-25T00:04:03.593Z,4.30
2019-02-25T00:06:34.055Z,7.37
2019-02-25T00:09:05.583Z,4.33
2019-02-25T00:11:36.246Z,6.10
2019-02-25T00:14:07.028Z,3.67
2019-02-25T00:16:37.600Z,2.03
2019-02-25T00:19:08.229Z,2.40
2019-02-25T00:21:38.688Z,1.67
2019-02-25T00:24:09.280Z,2.43
2019-02-25T00:26:39.844Z,3.63
2019-02-25T00:29:10.389Z,4.03
2019-02-25T00:31:40.907Z,2.43
2019-02-25T00:34:11.443Z,1.90
2019-02-25T00:36:41.958Z,1.83
2019-02-25T00:39:12.601Z,1.50
2019-02-25T00:41:43.330Z,1.40
2019-02-25T00:44:13.865Z,1.20
2019-02-25T00:46:44.370Z,0.90
2019-02-25T00:49:14.922Z,1.70
2019-02-25T00:51:45.201Z,1.53
2019-02-25T00:54:15.773Z,1.03
2019-02-25T00:56:46.612Z,1.73
2019-02-25T00:59:17.028Z,1.97
2019-02-25T01:01:47.456Z,2.23
2019-02-25T01:04:17.989Z,2.50
2019-02-25T01:06:48.623Z,1.83
2019-02-25T01:09:19.018Z,1.43
2019-02-25T01:11:49.425Z,1.37
2019-02-25T01:14:19.775Z,1.93
2019-02-25T01:16:50.555Z,1.33
2019-02-25T01:19:21.420Z,1.40
2019-02-25T01:21:51.741Z,0.67
2019-02-25T01:24:22.270Z,1.40
2019-02-25T01:26:53.015Z,0.93
2019-02-25T01:29:23.442Z,1.60
2019-02-25T01:31:53.863Z,1.13
2019-02-25T01:34:24.297Z,1.07
2019-02-25T01:36:54.828Z,1.03
2019-02-25T01:39:25.482Z,0.70
2019-02-25T01:41:55.909Z,0.63
2019-02-25T01:44:26.306Z,0.67
2019-02-25T01:46:56.647Z,1.27
2019-02-25T01:49:27.158Z,1.23
2019-02-25T01:51:57.462Z,0.70
2019-02-25T01:54:28.116Z,1.10
2019-02-25T01:56:58.957Z,0.83
2019-02-25T01:59:29.676Z,1.17
2019-02-25T02:02:00.009Z,0.70
2019-02-25T02:04:30.746Z,1.20
2019-02-25T02:07:01.196Z,2.40
2019-02-25T02:09:31.499Z,1.20
2019-02-25T02:12:02.020Z,1.57
2019-02-25T02:14:32.541Z,1.30
2019-02-25T02:17:03.617Z,1.37
2019-02-25T02:19:34.141Z,1.47
2019-02-25T02:22:05.056Z,1.33
2019-02-25T02:24:35.466Z,1.47
2019-02-25T02:27:05.997Z,1.67
2019-02-25T02:29:36.582Z,2.20
2019-02-25T02:32:07.340Z,1.77
2019-02-25T02:34:37.846Z,2.17
2019-02-25T02:37:08.149Z,1.70
2019-02-25T02:39:38.554Z,2.00
2019-02-25T02:42:22.660Z,2.30
2019-02-25T02:45:31.243Z,1.63
2019-02-25T02:48:10.797Z,2.20
2019-02-25T02:50:41.285Z,2.00
2019-02-25T02:53:11.691Z,1.20
2019-02-25T02:55:42.484Z,1.13
2019-02-25T02:58:12.881Z,1.30
2019-02-25T03:00:43.294Z,0.80
2019-02-25T03:03:13.703Z,1.20
2019-02-25T03:05:44.160Z,1.67
2019-02-25T03:08:14.691Z,0.80
2019-02-25T03:10:45.363Z,1.63
2019-02-25T03:13:15.657Z,1.97
2019-02-25T03:15:46.052Z,1.83
2019-02-25T03:18:16.840Z,1.43
2019-02-25T03:20:47.346Z,1.50
2019-02-25T03:23:17.742Z,1.43
2019-02-25T03:25:48.172Z,1.63
2019-02-25T03:28:18.743Z,1.07
2019-02-25T03:30:49.246Z,2.00
2019-02-25T03:33:19.805Z,1.13
2019-02-25T03:35:50.482Z,1.50
2019-02-25T03:38:20.913Z,2.10
2019-02-25T03:40:51.346Z,1.37
2019-02-25T03:43:21.972Z,1.47
2019-02-25T03:45:52.710Z,2.50
2019-02-25T03:48:23.019Z,49.80
2019-02-25T03:50:53.497Z,4.60
2019-02-25T03:53:23.895Z,1.90
2019-02-25T03:58:52.531Z,1.70
2019-02-25T04:01:23.250Z,1.73
2019-02-25T04:03:59.651Z,1.50
2019-02-25T04:06:29.992Z,2.37
2019-02-25T04:09:00.370Z,1.63
2019-02-25T04:11:30.777Z,2.00
2019-02-25T04:14:01.169Z,2.07
2019-02-25T04:16:31.745Z,1.87
2019-02-25T04:19:02.387Z,1.90
2019-02-25T04:21:38.490Z,2.20
2019-02-25T04:24:08.858Z,1.20
2019-02-25T04:26:39.161Z,2.43
2019-02-25T04:29:09.591Z,2.37
2019-02-25T04:31:40.311Z,2.40
2019-02-25T04:34:10.685Z,2.73
2019-02-25T04:36:41.413Z,7.30
2019-02-25T04:39:11.842Z,3.70
2019-02-25T04:41:42.460Z,2.43
2019-02-25T04:44:12.880Z,3.37
2019-02-25T04:47:03.413Z,4.13
2019-02-25T04:49:33.892Z,3.13
2019-02-25T04:52:04.212Z,3.00
2019-02-25T04:54:34.746Z,1.47
2019-02-25T04:57:04.938Z,2.40
2019-02-25T04:59:34.817Z,1.40
2019-02-25T05:02:04.801Z,3.20
2019-02-25T05:04:34.977Z,2.33
2019-02-25T05:07:05.180Z,2.07
2019-02-25T05:09:35.193Z,2.23
2019-02-25T05:12:05.196Z,4.07
2019-02-25T05:14:35.375Z,4.13
2019-02-25T05:17:05.587Z,5.00
2019-02-25T05:19:35.478Z,3.40
2019-02-25T05:22:05.465Z,6.00
2019-02-25T05:24:35.648Z,2.87
2019-02-25T05:27:05.731Z,6.03
2019-02-25T05:29:35.935Z,5.00
2019-02-25T05:32:06.156Z,3.13
2019-02-25T05:34:36.050Z,2.80
2019-02-25T05:37:06.142Z,3.67
2019-02-25T05:39:36.498Z,4.27
2019-02-25T05:42:07.155Z,4.47
2019-02-25T05:44:37.333Z,3.70
2019-02-25T05:47:07.314Z,3.00
2019-02-25T05:49:37.995Z,1.17
2019-02-25T05:52:08.228Z,3.63
2019-02-25T05:54:38.114Z,2.33
2019-02-25T05:57:08.217Z,2.10
2019-02-25T05:59:38.420Z,2.97
2019-02-25T06:02:08.617Z,4.70
2019-02-25T06:04:38.702Z,2.50
2019-02-25T06:07:10.465Z,3.43
2019-02-25T06:09:40.857Z,0.90
2019-02-25T06:12:10.853Z,4.70
2019-02-25T06:14:41.054Z,4.20
2019-02-25T06:17:11.371Z,4.53
2019-02-25T06:19:41.262Z,1.87
2019-02-25T06:22:11.351Z,2.20
2019-02-25T06:24:41.549Z,2.60
2019-02-25T06:27:11.758Z,4.60
2019-02-25T06:29:41.635Z,2.10
2019-02-25T06:32:11.612Z,2.50
2019-02-25T06:34:41.909Z,3.17
2019-02-25T06:37:12.120Z,6.00
2019-02-25T06:39:42.019Z,1.80
2019-02-25T06:42:11.905Z,2.50
2019-02-25T06:44:42.127Z,2.30
2019-02-25T06:47:12.310Z,3.70
2019-02-25T06:49:42.459Z,1.27
2019-02-25T06:52:12.352Z,3.30
2019-02-25T06:54:42.539Z,2.60
2019-02-25T06:57:12.719Z,3.10
2019-02-25T06:59:42.621Z,3.80
2019-02-25T07:02:12.597Z,2.80
2019-02-25T07:05:07.976Z,2.00
2019-02-25T07:07:55.706Z,2.70
2019-02-25T07:10:53.476Z,4.10
2019-02-25T07:13:44.993Z,6.40
2019-02-25T07:16:32.865Z,3.03
2019-02-25T07:19:18.991Z,3.70
2019-02-25T07:22:07.704Z,3.60
2019-02-25T07:25:02.782Z,2.17
2019-02-25T07:27:50.957Z,4.73
2019-02-25T07:30:54.831Z,4.47
2019-02-25T07:33:42.190Z,7.07
2019-02-25T07:36:43.445Z,2.97
2019-02-25T07:39:35.489Z,3.10
2019-02-25T07:42:36.486Z,3.60
2019-02-25T07:45:33.917Z,4.43
2019-02-25T07:48:29.135Z,5.33
2019-02-25T07:51:14.332Z,3.80
2019-02-25T07:54:06.955Z,2.80
2019-02-25T07:57:11.642Z,3.53
2019-02-25T07:59:59.443Z,2.40
2019-02-25T08:02:39.650Z,1.60
2019-02-25T08:05:37.843Z,2.73
2019-02-25T08:08:16.336Z,1.20
2019-02-25T08:11:08.358Z,1.57
2019-02-25T08:13:53.942Z,1.80
2019-02-25T08:16:43.265Z,2.80
2019-02-25T08:19:41.760Z,2.47
2019-02-25T08:22:45.925Z,2.27
2019-02-25T08:25:48.399Z,1.67
2019-02-25T08:28:52.559Z,0.70
2019-02-25T08:31:47.569Z,2.40
2019-02-25T08:34:39.210Z,0.90
2019-02-25T08:37:48.784Z,1.87
2019-02-25T08:40:38.771Z,2.93
2019-02-25T08:43:43.540Z,2.13
2019-02-25T08:46:22.297Z,4.60
2019-02-25T08:49:05.004Z,2.37
2019-02-25T08:51:35.307Z,3.30
2019-02-25T08:54:05.329Z,4.00
2019-02-25T08:56:35.488Z,3.73
2019-02-25T08:59:05.682Z,2.67
2019-02-25T09:01:35.775Z,4.40
2019-02-25T09:04:05.970Z,5.67
2019-02-25T09:06:36.169Z,6.40
2019-02-25T09:09:07.711Z,6.30
2019-02-25T09:11:37.819Z,6.73
2019-02-25T09:14:08.018Z,4.93
2019-02-25T09:16:38.223Z,5.90
2019-02-25T09:19:08.137Z,6.10
2019-02-25T09:21:38.022Z,5.37
2019-02-25T09:24:08.196Z,6.27
2019-02-25T09:26:38.385Z,5.00
2019-02-25T09:29:08.378Z,5.87
2019-02-25T09:31:38.281Z,6.23
2019-02-25T09:34:08.475Z,6.00
2019-02-25T09:36:38.663Z,3.73
2019-02-25T09:39:13.007Z,3.73
2019-02-25T09:41:43.221Z,4.27
2019-02-25T09:44:13.219Z,5.23
2019-02-25T09:46:43.229Z,8.17
2019-02-25T09:49:13.492Z,6.63
2019-02-25T09:51:43.997Z,4.30
2019-02-25T09:54:14.334Z,6.60
2019-02-25T09:56:44.509Z,6.30
2019-02-25T09:59:14.801Z,1.83
2019-02-25T10:01:45.018Z,1.67
2019-02-25T10:04:15.036Z,7.23
2019-02-25T10:06:45.013Z,4.33
2019-02-25T10:09:15.214Z,4.10
2019-02-25T10:11:45.481Z,6.83
2019-02-25T10:14:15.356Z,4.90
2019-02-25T10:16:45.352Z,9.03
2019-02-25T10:19:15.550Z,6.23
2019-02-25T10:21:45.638Z,6.37
2019-02-25T10:24:17.151Z,6.70
2019-02-25T10:26:47.419Z,2.73
2019-02-25T10:29:17.409Z,2.90
2019-02-25T10:31:47.404Z,2.83
2019-02-25T10:34:18.052Z,3.50
2019-02-25T10:36:50.169Z,3.87
2019-02-25T10:39:20.067Z,3.43
2019-02-25T10:41:51.171Z,2.43
2019-02-25T10:44:21.878Z,2.10
2019-02-25T10:46:52.450Z,5.63
2019-02-25T10:49:24.425Z,4.63
2019-02-25T10:51:55.527Z,4.07
2019-02-25T10:54:26.009Z,4.70
2019-02-25T10:57:02.952Z,2.57
2019-02-25T10:59:34.648Z,2.17
2019-02-25T11:02:05.088Z,5.30
2019-02-25T11:04:35.093Z,3.60
2019-02-25T11:07:07.281Z,3.17
2019-02-25T11:09:51.372Z,4.43
2019-02-25T11:12:23.549Z,4.70
2019-02-25T11:14:53.385Z,3.07
2019-02-25T11:17:24.432Z,2.17
2019-02-25T11:19:56.569Z,1.77
2019-02-25T11:22:26.976Z,2.90
2019-02-25T11:24:57.802Z,2.53
2019-02-25T11:27:28.588Z,1.70
2019-02-25T11:29:59.793Z,3.67
2019-02-25T11:32:30.056Z,3.50
2019-02-25T11:35:01.299Z,6.80
2019-02-25T11:37:31.925Z,10.00
2019-02-25T11:40:04.279Z,5.43
2019-02-25T11:42:34.411Z,12.73
2019-02-25T11:45:05.680Z,4.50
2019-02-25T11:47:36.058Z,3.40
2019-02-25T11:50:06.776Z,3.93
2019-02-25T11:52:36.990Z,3.63
2019-02-25T11:55:08.055Z,4.47
2019-02-25T11:57:38.277Z,2.80
2019-02-25T12:00:14.945Z,1.93
2019-02-25T12:02:45.558Z,1.63
2019-02-25T12:05:17.188Z,3.43
2019-02-25T12:07:48.033Z,5.03
2019-02-25T12:10:18.664Z,5.97
2019-02-25T12:12:48.688Z,5.40
2019-02-25T12:15:18.882Z,5.57
2019-02-25T12:17:49.282Z,5.70
2019-02-25T12:20:19.823Z,8.40
2019-02-25T12:22:50.167Z,21.10
2019-02-25T12:25:20.416Z,46.57
2019-02-25T12:27:50.962Z,79.07
2019-02-25T12:30:21.595Z,34.97
2019-02-25T12:32:52.129Z,15.43
2019-02-25T12:35:22.859Z,9.97
2019-02-25T12:37:53.590Z,14.00
2019-02-25T12:40:24.169Z,8.83
2019-02-25T12:42:54.272Z,26.67
2019-02-25T12:45:24.559Z,9.87
2019-02-25T12:47:55.088Z,37.20
2019-02-25T12:50:25.491Z,6.43
2019-02-25T12:52:56.318Z,10.87
2019-02-25T12:55:27.158Z,27.20
2019-02-25T12:57:57.697Z,9.67
2019-02-25T13:00:27.686Z,9.50
2019-02-25T13:02:58.035Z,6.43
2019-02-25T13:05:28.027Z,7.33
2019-02-25T13:07:57.936Z,4.50
2019-02-25T13:10:28.225Z,6.63
2019-02-25T13:12:58.427Z,6.57
2019-02-25T13:15:28.533Z,10.40
2019-02-25T13:18:00.130Z,5.20
2019-02-25T13:20:30.843Z,4.77
2019-02-25T13:23:01.039Z,4.60
2019-02-25T13:25:30.946Z,4.03
2019-02-25T13:28:02.084Z,6.70
2019-02-25T13:30:32.783Z,5.07
2019-02-25T13:33:03.053Z,6.20
2019-02-25T13:35:33.060Z,6.30
2019-02-25T13:38:02.972Z,4.50
2019-02-25T13:40:33.544Z,4.47
2019-02-25T13:43:03.618Z,4.07
2019-02-25T13:45:33.891Z,5.37
2019-02-25T13:48:04.105Z,18.90
2019-02-25T13:50:34.195Z,8.43
2019-02-25T13:53:04.629Z,5.20
2019-02-25T13:55:35.016Z,6.57
2019-02-25T13:58:05.389Z,5.43
2019-02-25T14:00:35.648Z,7.60
2019-02-25T14:03:05.862Z,10.90
2019-02-25T14:05:36.158Z,12.87
2019-02-25T14:08:06.363Z,9.97
2019-02-25T14:10:36.374Z,9.90
2019-02-25T14:13:06.690Z,11.13
2019-02-25T14:15:36.889Z,9.03
2019-02-25T14:18:07.164Z,9.57
2019-02-25T14:20:37.062Z,12.07
2019-02-25T14:23:07.269Z,12.40
2019-02-25T14:25:38.389Z,11.80
2019-02-25T14:28:09.048Z,11.60
2019-02-25T14:30:40.026Z,6.57
2019-02-25T14:33:12.672Z,8.50
2019-02-25T14:35:42.263Z,10.17
2019-02-25T14:38:15.892Z,9.13
2019-02-25T14:40:46.601Z,11.77
2019-02-25T14:43:17.676Z,6.30
2019-02-25T14:45:53.089Z,10.60
2019-02-25T14:48:21.048Z,12.20
2019-02-25T14:50:52.130Z,9.00
2019-02-25T14:53:22.588Z,9.33
2019-02-25T14:55:55.281Z,8.83
2019-02-25T14:58:24.636Z,18.93
2019-02-25T15:00:55.006Z,12.17
2019-02-25T15:03:27.006Z,13.27
2019-02-25T15:05:59.146Z,14.13
2019-02-25T15:08:30.627Z,16.67
2019-02-25T15:11:02.404Z,14.27
2019-02-25T15:13:35.048Z,13.90
2019-02-25T15:16:05.331Z,31.13
2019-02-25T15:18:35.818Z,23.07
2019-02-25T15:21:11.687Z,9.57
2019-02-25T15:23:42.773Z,8.60
2019-02-25T15:26:15.096Z,7.60
2019-02-25T15:28:44.894Z,8.93
2019-02-25T15:31:16.502Z,6.43
2019-02-25T15:33:47.200Z,9.80
2019-02-25T15:36:17.876Z,8.67
2019-02-25T15:38:49.313Z,7.37
2019-02-25T15:41:19.449Z,7.30
2019-02-25T15:43:49.730Z,12.50
2019-02-25T15:46:22.204Z,14.97
2019-02-25T15:48:51.691Z,29.60
2019-02-25T15:51:22.085Z,33.10
2019-02-25T15:53:54.103Z,22.27
2019-02-25T15:56:24.643Z,22.03
2019-02-25T15:58:54.524Z,25.50
2019-02-25T16:01:59.961Z,29.60
2019-02-25T16:04:31.860Z,33.47
2019-02-25T16:07:05.647Z,41.10
2019-02-25T16:09:34.024Z,35.07
2019-02-25T16:12:05.871Z,42.37
2019-02-25T16:14:38.865Z,44.57
2019-02-25T16:17:08.727Z,62.00
2019-02-25T16:19:46.442Z,70.50
2019-02-25T16:22:11.848Z,76.80
2019-02-25T16:24:43.606Z,66.37
2019-02-25T16:27:14.435Z,44.63
2019-02-25T16:29:44.725Z,42.80
2019-02-25T16:32:16.903Z,43.07
2019-02-25T16:34:46.734Z,58.53
2019-02-25T16:48:24.222Z,53.23
2019-02-25T16:50:52.469Z,61.33
2019-02-25T16:53:22.740Z,61.97
2019-02-25T16:55:53.132Z,74.23
2019-02-25T16:58:23.149Z,99.90
2019-02-25T17:00:56.022Z,88.27
2019-02-25T17:03:25.672Z,65.50
2019-02-25T17:05:55.764Z,54.63
2019-02-25T17:08:26.566Z,47.33
2019-02-25T17:10:59.818Z,63.10
2019-02-25T17:13:32.465Z,53.33
2019-02-25T17:16:02.704Z,48.27
2019-02-25T17:18:33.315Z,50.47
2019-02-25T17:21:05.174Z,37.10
2019-02-25T17:23:37.045Z,45.87
2019-02-25T17:26:07.719Z,25.50
2019-02-25T17:28:39.139Z,12.20
2019-02-25T17:31:11.127Z,7.83
2019-02-25T17:33:41.056Z,8.10
2019-02-25T17:36:12.417Z,8.07
2019-02-25T17:38:44.919Z,12.30
2019-02-25T17:41:15.075Z,19.47
2019-02-25T17:43:45.069Z,15.07
2019-02-25T17:46:15.275Z,8.97
2019-02-25T17:48:46.131Z,9.10
2019-02-25T17:51:18.347Z,6.70
2019-02-25T17:53:49.919Z,5.97
2019-02-25T17:56:20.710Z,8.17
2019-02-25T17:58:52.016Z,5.90
2019-02-25T18:01:24.179Z,5.30
2019-02-25T18:03:53.971Z,6.80
2019-02-25T18:06:29.467Z,5.07
2019-02-25T18:08:57.684Z,7.63
2019-02-25T18:11:28.102Z,4.83
2019-02-25T18:13:58.264Z,7.30
2019-02-25T18:16:28.464Z,6.13
2019-02-25T18:18:58.666Z,4.83
2019-02-25T18:21:29.036Z,4.87
2019-02-25T18:23:59.129Z,6.93
2019-02-25T18:26:31.102Z,5.67
2019-02-25T18:29:01.514Z,8.23
2019-02-25T18:31:32.094Z,6.30
2019-02-25T18:34:02.302Z,7.07
2019-02-25T18:36:33.215Z,10.40
2019-02-25T18:39:03.776Z,8.80
2019-02-25T18:41:34.370Z,6.83
2019-02-25T18:44:05.311Z,7.73
2019-02-25T18:46:36.560Z,14.17
2019-02-25T18:49:07.374Z,14.97
2019-02-25T18:51:39.473Z,16.93
2019-02-25T18:54:09.858Z,13.30
2019-02-25T18:56:42.058Z,9.53
2019-02-25T18:59:15.523Z,15.03
2019-02-25T19:01:45.359Z,14.90
2019-02-25T19:04:17.579Z,13.53
2019-02-25T19:06:47.919Z,10.63
2019-02-25T19:09:25.110Z,15.67
2019-02-25T19:11:56.163Z,20.50
2019-02-25T19:14:28.614Z,25.70
2019-02-25T19:16:59.788Z,28.50
2019-02-25T19:19:33.722Z,23.80
2019-02-25T19:22:02.116Z,22.43
2019-02-25T19:24:33.602Z,23.97
2019-02-25T19:27:06.578Z,33.07
2019-02-25T19:29:36.813Z,22.20
2019-02-25T19:32:07.004Z,27.43
2019-02-25T19:34:39.233Z,17.60
2019-02-25T19:37:10.340Z,19.40
2019-02-25T19:39:42.098Z,20.90
2019-02-25T19:42:15.451Z,22.87
2019-02-25T19:44:44.514Z,34.50
2019-02-25T19:47:16.732Z,23.50
2019-02-25T19:49:46.680Z,18.03
2019-02-25T19:52:17.274Z,14.23
2019-02-25T19:54:48.788Z,15.50
2019-02-25T19:57:21.017Z,13.93
2019-02-25T19:59:52.894Z,14.80
2019-02-25T20:02:24.661Z,11.47
2019-02-25T20:04:54.772Z,13.13
2019-02-25T20:07:27.925Z,18.40
2019-02-25T20:09:57.860Z,9.50
2019-02-25T20:12:28.396Z,13.83
2019-02-25T20:14:58.660Z,13.87
2019-02-25T20:17:30.635Z,9.77
2019-02-25T20:20:02.952Z,10.83
2019-02-25T20:22:34.473Z,12.40
2019-02-25T20:25:05.852Z,12.60
2019-02-25T20:27:36.287Z,8.30
2019-02-25T20:30:08.175Z,9.97
2019-02-25T20:32:38.976Z,15.77
2019-02-25T20:35:14.008Z,12.37
2019-02-25T20:37:43.714Z,11.07
2019-02-25T20:40:17.079Z,16.00
2019-02-25T20:42:49.077Z,10.83
2019-02-25T20:45:23.001Z,10.30
2019-02-25T20:47:52.245Z,12.30
2019-02-25T20:50:23.583Z,16.10
2019-02-25T20:52:53.691Z,19.03
2019-02-25T20:55:24.988Z,18.67
2019-02-25T20:57:55.976Z,16.00
2019-02-25T21:00:26.383Z,24.57
2019-02-25T21:02:56.569Z,18.47
2019-02-25T21:05:27.369Z,15.77
2019-02-25T21:07:59.745Z,12.80
2019-02-25T21:10:32.600Z,11.20
2019-02-25T21:13:02.316Z,9.50
2019-02-25T21:15:35.468Z,8.63
2019-02-25T21:18:07.530Z,11.40
2019-02-25T21:20:36.323Z,10.67
2019-02-25T21:23:08.366Z,13.17
2019-02-25T21:25:38.743Z,13.30
2019-02-25T21:28:09.564Z,11.67
2019-02-25T21:30:41.794Z,14.20
2019-02-25T21:33:15.317Z,10.77
2019-02-25T21:35:44.510Z,12.93
2019-02-25T21:38:14.593Z,9.17
2019-02-25T21:40:46.168Z,11.00
2019-02-25T21:43:18.577Z,7.93
2019-02-25T21:45:50.426Z,11.57
2019-02-25T21:48:23.050Z,10.60
2019-02-25T21:50:52.009Z,8.93
2019-02-25T21:53:21.901Z,8.93
2019-02-25T21:55:53.557Z,7.33
2019-02-25T21:58:25.433Z,8.50
2019-02-25T22:00:55.854Z,7.37
2019-02-25T22:03:25.891Z,5.87
2019-02-25T22:05:58.775Z,6.53
2019-02-25T22:08:29.047Z,6.00
2019-02-25T22:11:11.996Z,6.50
2019-02-25T22:13:31.712Z,13.30
2019-02-25T22:16:03.429Z,9.00
2019-02-25T22:18:34.152Z,7.53
2019-02-25T22:21:09.237Z,8.60
2019-02-25T22:23:37.313Z,8.30
2019-02-25T22:26:07.433Z,6.20
2019-02-25T22:28:39.418Z,5.30
2019-02-25T22:31:10.807Z,4.23
2019-02-25T22:33:41.240Z,4.90
2019-02-25T22:36:11.449Z,5.87
2019-02-25T22:38:41.412Z,4.10
2019-02-25T22:41:11.307Z,6.30
2019-02-25T22:43:43.736Z,7.63
2019-02-25T22:46:13.406Z,6.60
2019-02-25T22:48:45.075Z,7.50
2019-02-25T22:51:15.026Z,7.77
2019-02-25T22:53:45.216Z,6.70
2019-02-25T22:56:15.871Z,6.83
2019-02-25T22:58:47.088Z,6.40
2019-02-25T23:01:18.115Z,6.13
2019-02-25T23:03:50.540Z,7.23
2019-02-25T23:06:21.322Z,7.30
2019-02-25T23:08:53.401Z,5.43
2019-02-25T23:11:26.119Z,7.20
2019-02-25T23:13:56.501Z,5.03
2019-02-25T23:16:26.683Z,7.10
2019-02-25T23:18:56.667Z,5.03
2019-02-25T23:21:28.793Z,6.67
2019-02-25T23:24:00.488Z,8.90
2019-02-25T23:26:30.497Z,6.27
2019-02-25T23:29:00.692Z,6.47
2019-02-25T23:31:30.759Z,7.60
2019-02-25T23:34:00.946Z,4.67
2019-02-25T23:36:31.139Z,4.40
2019-02-25T23:39:01.703Z,4.90
2019-02-25T23:41:36.274Z,4.30
2019-02-25T23:44:04.672Z,3.17
2019-02-25T23:46:37.152Z,4.47
2019-02-25T23:49:06.683Z,4.80
2019-02-25T23:51:37.750Z,5.10
2019-02-25T23:54:11.845Z,2.60
2019-02-25T23:56:40.410Z,5.33
2019-02-25T23:59:12.696Z,4.10
